EFKK/KOK METAR and TAF weather

Enter ICAO airport designator
Station Type Date Time Source
EFKK METAR 2020/09/25 19:50 UTC NOAA

EFKK 251950Z AUTO VRB01KT 9999 1300 R01/P2000D NCD 04/03 Q1010


Station Type Date Time Source
EFKK Decoded METAR 2020/09/25 19:50 UTC NOAA

Kruunupyy, Finland (EFKK) 63-43N 023-09E
Sep 25, 2020 - 03:50 PM EDT / 2020.09.25 1950 UTC
Wind: Variable at 1 MPH (1 KT):0
Visibility: greater than 7 mile(s):0
Temperature: 39 F (4 C)
Dew Point: 37 F (3 C)
Relative Humidity: 93%
Pressure (altimeter): 29.83 in. Hg (1010 hPa)
ob: EFKK 251950Z AUTO VRB01KT 9999 1300 R01/P2000D NCD 04/03 Q1010
cycle: 20

Station Type Date Time Source
EFKK TAF 2019/04/22 21:42 UTC NOAA

TAF EFKK 222023Z 2221/2321 18006KT CAVOK

Example: see airport list